logo tempoitalia

Diretta Meteo Sharjah, Emirati Arabi Unitilunedì 31 agosto ore 09:30

Mappa
Sereno 39 °C Sereno 24 Ore: T.min 30 T.max 42
Ponente Ovest Km/h 7.4 Punto di rugiada: 12 °C Umidità: 20% Visibilità: 10 Km
Il sole sorge alle: 05:58 Il sole tramonta alle: 18:38
31 Agosto 2026 09:30 tempo osservato: Sereno Sereno 39 20 1002 vento: Nord O 7.4
31 Agosto 2026 09:00 tempo osservato: Sereno Sereno 38 22 1002 vento: Nord O 7.4
31 Agosto 2026 08:30 tempo osservato: Sereno Sereno 36 25 1002 vento: Nord S 14.8
31 Agosto 2026 08:00 tempo osservato: Sereno Sereno 35 26 1002 vento: Nord S 13
31 Agosto 2026 07:30 tempo osservato: Sereno Sereno 34 28 1002 vento: Nord S 13
31 Agosto 2026 07:00 tempo osservato: Sereno Sereno 33 29 1001 vento: Nord S 16.7
31 Agosto 2026 06:30 tempo osservato: Sereno Sereno 32 33 1001 vento: Nord S 13
31 Agosto 2026 06:00 tempo osservato: Sereno Sereno 32 35 1001 vento: Nord S/SE 13
31 Agosto 2026 05:30 tempo osservato: Sereno Sereno 32 38 1001 vento: Nord S/SE 13
31 Agosto 2026 05:00 tempo osservato: Sereno Sereno 32 40 1001 vento: Nord S/SE 11.1
31 Agosto 2026 04:30 tempo osservato: Sereno Sereno 32 43 1001 vento: Nord S 13
31 Agosto 2026 04:00 tempo osservato: Sereno Sereno 33 43 1001 vento: Nord S/SE 14.8
31 Agosto 2026 03:00 tempo osservato: Sereno Sereno 30 55 1001 vento: Nord N 5.5
31 Agosto 2026 02:30 tempo osservato: Sereno Sereno 33 46 1001 vento: Nord S/SE 9.3
31 Agosto 2026 02:00 tempo osservato: Sereno Sereno 33 49 1001 vento: Nord S/SE 7.4
31 Agosto 2026 01:30 tempo osservato: Sereno Sereno 31 55 1001 vento: Nord N 5.5
31 Agosto 2026 01:00 tempo osservato: Sereno Sereno 31 55 1001 vento: Nord N 5.5
31 Agosto 2026 00:30 tempo osservato: Sereno Sereno 32 59 1001 vento: Nord N 3.7
31 Agosto 2026 00:00 tempo osservato: Sereno Sereno 32 59 1002 vento: Nord N 5.5
30 Agosto 2026 23:30 tempo osservato: Sereno Sereno 32 59 1002 vento: Nord E 7.4
30 Agosto 2026 23:00 tempo osservato: Sereno Sereno 32 59 1002 vento: Nord N/NE 7.4
30 Agosto 2026 22:30 tempo osservato: Sereno Sereno 34 52 1002 vento: Nord N 9.3
30 Agosto 2026 22:00 tempo osservato: Sereno Sereno 35 49 1001 vento: Nord S 9.3
30 Agosto 2026 21:30 tempo osservato: Sereno Sereno 35 53 1001 vento: Nord S 11.1
30 Agosto 2026 21:00 tempo osservato: Sereno Sereno 35 49 1001 vento: Nord N 0
30 Agosto 2026 20:30 tempo osservato: Sereno Sereno 35 56 1001 vento: Nord N 3.7
30 Agosto 2026 20:00 tempo osservato: Sereno Sereno 35 56 1001 vento: Nord N 3.7
30 Agosto 2026 19:30 tempo osservato: Sereno Sereno 36 47 1000 vento: Nord N 5.5
30 Agosto 2026 19:00 tempo osservato: Sereno Sereno 37 42 1000 vento: Nord NO 7.4
30 Agosto 2026 18:30 tempo osservato: Sereno Sereno 38 39 1000 vento: Nord O/NO 16.7
30 Agosto 2026 18:00 tempo osservato: Sereno Sereno 38 42 1000 vento: Nord NO 16.7
30 Agosto 2026 17:30 tempo osservato: Sereno Sereno 39 33 1000 vento: Nord O/NO 18.5
30 Agosto 2026 17:00 tempo osservato: Sereno Sereno 40 29 1000 vento: Nord O 22.2
30 Agosto 2026 16:30 tempo osservato: Sereno Sereno 40 31 1000 vento: Nord O 20.3
30 Agosto 2026 16:00 tempo osservato: Sereno Sereno 40 33 1000 vento: Nord O/NO 20.3
30 Agosto 2026 15:30 tempo osservato: Sereno Sereno 40 33 1000 vento: Nord O 18.5
30 Agosto 2026 15:00 tempo osservato: Sereno Sereno 40 33 1001 vento: Nord O 22.2
30 Agosto 2026 14:30 tempo osservato: Sereno Sereno 40 31 1001 vento: Nord O 20.3
30 Agosto 2026 14:00 tempo osservato: Sereno Sereno 41 26 1001 vento: Nord O 18.5
30 Agosto 2026 13:30 tempo osservato: Sereno Sereno 41 24 1001 vento: Nord O 14.8
30 Agosto 2026 13:00 tempo osservato: Sereno Sereno 42 23 1002 vento: Nord NO 16.7
30 Agosto 2026 12:30 tempo osservato: Sereno Sereno 42 23 1002 vento: Nord O/NO 13
30 Agosto 2026 12:06 tempo osservato: Sereno Sereno 41 23 1002 vento: Nord O/NO 20.3
30 Agosto 2026 12:00 tempo osservato: Sereno Sereno 42 22 1002 vento: Nord SO 13
30 Agosto 2026 11:30 tempo osservato: Sereno Sereno 42 18 1003 vento: Nord SO 18.5
30 Agosto 2026 11:00 tempo osservato: Sereno Sereno 41 20 1003 vento: Nord SO 16.7
30 Agosto 2026 10:30 tempo osservato: Sereno Sereno 40 23 1003 vento: Nord S/SO 7.4
30 Agosto 2026 10:00 tempo osservato: Sereno Sereno 39 24 1003 vento: Nord SO 9.3